sensor_id;sensor_type;location;lat;lon;timestamp;pressure;altitude;pressure_sealevel;temperature
40624;BMP280;26325;48.594;11.650;2023-02-01T00:02:17;97138.91;;;4.57
40624;BMP280;26325;48.594;11.650;2023-02-01T00:04:42;97131.22;;;4.51
40624;BMP280;26325;48.594;11.650;2023-02-01T00:07:08;97142.28;;;4.58
40624;BMP280;26325;48.594;11.650;2023-02-01T00:09:33;97133.97;;;4.50
40624;BMP280;26325;48.594;11.650;2023-02-01T00:12:01;97123.75;;;4.56
40624;BMP280;26325;48.594;11.650;2023-02-01T00:14:28;97121.00;;;4.51
40624;BMP280;26325;48.594;11.650;2023-02-01T00:16:57;97107.84;;;4.54
40624;BMP280;26325;48.594;11.650;2023-02-01T00:19:22;97110.19;;;4.56
40624;BMP280;26325;48.594;11.650;2023-02-01T00:21:48;97110.34;;;4.48
40624;BMP280;26325;48.594;11.650;2023-02-01T00:24:16;97119.75;;;4.41
40624;BMP280;26325;48.594;11.650;2023-02-01T00:26:45;97111.88;;;4.36
40624;BMP280;26325;48.594;11.650;2023-02-01T00:29:18;97110.16;;;4.49
40624;BMP280;26325;48.594;11.650;2023-02-01T00:31:49;97102.88;;;4.46
40624;BMP280;26325;48.594;11.650;2023-02-01T00:34:16;97127.28;;;4.49
40624;BMP280;26325;48.594;11.650;2023-02-01T00:36:43;97122.84;;;4.30
40624;BMP280;26325;48.594;11.650;2023-02-01T00:39:09;97116.84;;;4.44
40624;BMP280;26325;48.594;11.650;2023-02-01T00:41:35;97121.78;;;4.52
40624;BMP280;26325;48.594;11.650;2023-02-01T00:44:01;97108.34;;;4.37
40624;BMP280;26325;48.594;11.650;2023-02-01T00:46:29;97117.03;;;4.49
40624;BMP280;26325;48.594;11.650;2023-02-01T00:48:57;97105.66;;;4.51
40624;BMP280;26325;48.594;11.650;2023-02-01T00:51:26;97113.91;;;4.47
40624;BMP280;26325;48.594;11.650;2023-02-01T00:53:57;97117.03;;;4.49
40624;BMP280;26325;48.594;11.650;2023-02-01T00:56:23;97109.97;;;4.51
40624;BMP280;26325;48.594;11.650;2023-02-01T00:58:53;97114.63;;;4.41
40624;BMP280;26325;48.594;11.650;2023-02-01T01:01:29;97119.94;;;4.39
40624;BMP280;26325;48.594;11.650;2023-02-01T01:03:58;97118.16;;;4.40
40624;BMP280;26325;48.594;11.650;2023-02-01T01:06:30;97115.09;;;4.51
40624;BMP280;26325;48.594;11.650;2023-02-01T01:09:00;97110.34;;;4.48
40624;BMP280;26325;48.594;11.650;2023-02-01T01:11:29;97099.81;;;4.70
40624;BMP280;26325;48.594;11.650;2023-02-01T01:13:57;97092.28;;;4.56
40624;BMP280;26325;48.594;11.650;2023-02-01T01:16:25;97091.84;;;4.46
40624;BMP280;26325;48.594;11.650;2023-02-01T01:18:51;97089.50;;;4.51
40624;BMP280;26325;48.594;11.650;2023-02-01T01:21:18;97090.28;;;4.51
40624;BMP280;26325;48.594;11.650;2023-02-01T01:23:45;97091.41;;;4.36
40624;BMP280;26325;48.594;11.650;2023-02-01T01:26:22;97093.38;;;4.34
40624;BMP280;26325;48.594;11.650;2023-02-01T01:28:48;97078.53;;;4.63
40624;BMP280;26325;48.594;11.650;2023-02-01T01:31:16;97083.59;;;4.56
40624;BMP280;26325;48.594;11.650;2023-02-01T01:33:42;97076.91;;;4.49
40624;BMP280;26325;48.594;11.650;2023-02-01T01:36:10;97081.66;;;4.52
40624;BMP280;26325;48.594;11.650;2023-02-01T01:38:37;97071.41;;;4.46
40624;BMP280;26325;48.594;11.650;2023-02-01T01:41:03;97067.47;;;4.50
40624;BMP280;26325;48.594;11.650;2023-02-01T01:43:54;97054.84;;;4.42
40624;BMP280;26325;48.594;11.650;2023-02-01T01:46:51;97067.25;;;4.38
40624;BMP280;26325;48.594;11.650;2023-02-01T01:49:22;97065.84;;;4.42
40624;BMP280;26325;48.594;11.650;2023-02-01T01:51:57;97064.69;;;4.38
40624;BMP280;26325;48.594;11.650;2023-02-01T01:54:27;97071.16;;;4.41
40624;BMP280;26325;48.594;11.650;2023-02-01T01:56:57;97068.22;;;4.37
40624;BMP280;26325;48.594;11.650;2023-02-01T01:59:24;97070.94;;;4.30
40624;BMP280;26325;48.594;11.650;2023-02-01T02:01:51;97070.72;;;4.31
40624;BMP280;26325;48.594;11.650;2023-02-01T02:04:19;97059.56;;;4.38
40624;BMP280;26325;48.594;11.650;2023-02-01T02:07:00;97063.09;;;4.37
40624;BMP280;26325;48.594;11.650;2023-02-01T02:09:27;97053.09;;;4.49
40624;BMP280;26325;48.594;11.650;2023-02-01T02:11:53;97057.94;;;4.31
40624;BMP280;26325;48.594;11.650;2023-02-01T02:14:19;97050.88;;;4.39
40624;BMP280;26325;48.594;11.650;2023-02-01T02:46:01;97026.53;;;4.50
40624;BMP280;26325;48.594;11.650;2023-02-01T02:49:34;97019.19;;;4.34
40624;BMP280;26325;48.594;11.650;2023-02-01T02:52:14;97023.53;;;4.40
40624;BMP280;26325;48.594;11.650;2023-02-01T02:55:00;97025.53;;;4.38
40624;BMP280;26325;48.594;11.650;2023-02-01T02:57:40;97012.34;;;4.41
40624;BMP280;26325;48.594;11.650;2023-02-01T03:00:30;97015.28;;;4.38
40624;BMP280;26325;48.594;11.650;2023-02-01T03:03:15;97020.97;;;4.40
40624;BMP280;26325;48.594;11.650;2023-02-01T03:05:59;97007.63;;;4.38
40624;BMP280;26325;48.594;11.650;2023-02-01T03:08:27;97003.66;;;4.29
40624;BMP280;26325;48.594;11.650;2023-02-01T03:11:06;97012.75;;;4.38
40624;BMP280;26325;48.594;11.650;2023-02-01T03:13:53;97011.16;;;4.37
40624;BMP280;26325;48.594;11.650;2023-02-01T03:16:36;97009.16;;;4.26
40624;BMP280;26325;48.594;11.650;2023-02-01T03:19:33;97022.47;;;4.16
40624;BMP280;26325;48.594;11.650;2023-02-01T03:22:09;97020.19;;;4.39
40624;BMP280;26325;48.594;11.650;2023-02-01T03:24:45;97019.03;;;4.48
40624;BMP280;26325;48.594;11.650;2023-02-01T03:27:27;97009.03;;;4.53
40624;BMP280;26325;48.594;11.650;2023-02-01T03:32:31;97010.56;;;4.48
40624;BMP280;26325;48.594;11.650;2023-02-01T03:35:23;97020.25;;;4.46
40624;BMP280;26325;48.594;11.650;2023-02-01T03:37:53;97006.06;;;4.50
40624;BMP280;26325;48.594;11.650;2023-02-01T03:40:21;97010.38;;;4.43
40624;BMP280;26325;48.594;11.650;2023-02-01T03:42:52;97009.19;;;4.39
40624;BMP280;26325;48.594;11.650;2023-02-01T03:47:49;97002.50;;;4.38
40624;BMP280;26325;48.594;11.650;2023-02-01T03:50:19;97006.22;;;4.36
40624;BMP280;26325;48.594;11.650;2023-02-01T03:52:53;97000.53;;;4.40
40624;BMP280;26325;48.594;11.650;2023-02-01T03:55:40;96990.09;;;4.41
40624;BMP280;26325;48.594;11.650;2023-02-01T03:58:26;96993.47;;;4.42
40624;BMP280;26325;48.594;11.650;2023-02-01T04:00:58;96987.72;;;4.40
40624;BMP280;26325;48.594;11.650;2023-02-01T04:03:25;96989.72;;;4.44
40624;BMP280;26325;48.594;11.650;2023-02-01T04:05:52;96984.44;;;4.46
40624;BMP280;26325;48.594;11.650;2023-02-01T04:08:19;96983.41;;;4.34
40624;BMP280;26325;48.594;11.650;2023-02-01T04:10:48;96987.97;;;4.51
40624;BMP280;26325;48.594;11.650;2023-02-01T04:13:13;96992.66;;;4.48
40624;BMP280;26325;48.594;11.650;2023-02-01T04:15:39;96993.09;;;4.45
40624;BMP280;26325;48.594;11.650;2023-02-01T04:18:05;96992.81;;;4.21
40624;BMP280;26325;48.594;11.650;2023-02-01T04:20:31;96990.69;;;4.37
40624;BMP280;26325;48.594;11.650;2023-02-01T04:23:00;97000.16;;;4.43
40624;BMP280;26325;48.594;11.650;2023-02-01T04:25:28;96984.38;;;4.33
40624;BMP280;26325;48.594;11.650;2023-02-01T04:27:53;96971.41;;;4.41
40624;BMP280;26325;48.594;11.650;2023-02-01T04:30:19;96978.53;;;4.45
40624;BMP280;26325;48.594;11.650;2023-02-01T04:32:45;96982.84;;;4.51
40624;BMP280;26325;48.594;11.650;2023-02-01T04:35:10;96985.19;;;4.40
40624;BMP280;26325;48.594;11.650;2023-02-01T04:37:39;96990.13;;;4.48
40624;BMP280;26325;48.594;11.650;2023-02-01T04:40:05;96994.84;;;4.38
40624;BMP280;26325;48.594;11.650;2023-02-01T04:42:31;96990.28;;;4.40
40624;BMP280;26325;48.594;11.650;2023-02-01T04:44:56;96982.44;;;4.48
40624;BMP280;26325;48.594;11.650;2023-02-01T04:47:24;96987.97;;;4.38
40624;BMP280;26325;48.594;11.650;2023-02-01T04:49:49;96982.28;;;4.56
40624;BMP280;26325;48.594;11.650;2023-02-01T04:52:15;96989.13;;;4.49
40624;BMP280;26325;48.594;11.650;2023-02-01T04:54:43;96969.28;;;4.44
40624;BMP280;26325;48.594;11.650;2023-02-01T04:57:08;96987.19;;;4.44
40624;BMP280;26325;48.594;11.650;2023-02-01T04:59:34;96974.38;;;4.44
40624;BMP280;26325;48.594;11.650;2023-02-01T05:02:01;96974.44;;;4.63
40624;BMP280;26325;48.594;11.650;2023-02-01T05:04:27;96963.19;;;4.58
40624;BMP280;26325;48.594;11.650;2023-02-01T05:06:52;96965.75;;;4.52
40624;BMP280;26325;48.594;11.650;2023-02-01T05:09:18;96967.56;;;4.64
40624;BMP280;26325;48.594;11.650;2023-02-01T05:11:44;96973.66;;;4.63
40624;BMP280;26325;48.594;11.650;2023-02-01T05:14:27;96950.63;;;4.69
40624;BMP280;26325;48.594;11.650;2023-02-01T05:16:53;96955.72;;;4.63
40624;BMP280;26325;48.594;11.650;2023-02-01T05:21:46;96958.69;;;4.73
40624;BMP280;26325;48.594;11.650;2023-02-01T05:24:12;96954.16;;;4.68
40624;BMP280;26325;48.594;11.650;2023-02-01T05:26:40;96962.63;;;4.62
40624;BMP280;26325;48.594;11.650;2023-02-01T05:29:07;96942.75;;;4.77
40624;BMP280;26325;48.594;11.650;2023-02-01T05:31:33;96950.22;;;4.66
40624;BMP280;26325;48.594;11.650;2023-02-01T05:33:59;96949.81;;;4.75
40624;BMP280;26325;48.594;11.650;2023-02-01T05:40:05;96929.16;;;4.83
40624;BMP280;26325;48.594;11.650;2023-02-01T05:42:33;96936.88;;;4.89
40624;BMP280;26325;48.594;11.650;2023-02-01T05:44:59;96934.09;;;4.84
40624;BMP280;26325;48.594;11.650;2023-02-01T05:47:32;96937.44;;;4.85
40624;BMP280;26325;48.594;11.650;2023-02-01T05:53:38;96937.63;;;4.77
40624;BMP280;26325;48.594;11.650;2023-02-01T06:00:04;96928.19;;;4.96
40624;BMP280;26325;48.594;11.650;2023-02-01T06:02:29;96941.59;;;5.05
40624;BMP280;26325;48.594;11.650;2023-02-01T06:08:43;96945.91;;;5.04
40624;BMP280;26325;48.594;11.650;2023-02-01T06:11:08;96931.53;;;5.03
40624;BMP280;26325;48.594;11.650;2023-02-01T06:13:34;96934.06;;;4.91
40624;BMP280;26325;48.594;11.650;2023-02-01T06:16:01;96933.91;;;4.98
40624;BMP280;26325;48.594;11.650;2023-02-01T06:22:08;96924.63;;;5.10
40624;BMP280;26325;48.594;11.650;2023-02-01T06:28:52;96934.50;;;5.07
40624;BMP280;26325;48.594;11.650;2023-02-01T06:31:18;96925.22;;;4.99
40624;BMP280;26325;48.594;11.650;2023-02-01T06:33:43;96919.13;;;5.13
40624;BMP280;26325;48.594;11.650;2023-02-01T06:36:10;96934.88;;;5.10
40624;BMP280;26325;48.594;11.650;2023-02-01T06:38:41;96932.31;;;4.85
40624;BMP280;26325;48.594;11.650;2023-02-01T06:41:10;96942.38;;;5.05
40624;BMP280;26325;48.594;11.650;2023-02-01T06:47:12;96934.09;;;4.97
40624;BMP280;26325;48.594;11.650;2023-02-01T06:57:01;96947.88;;;5.02
40624;BMP280;26325;48.594;11.650;2023-02-01T06:59:29;96946.69;;;5.05
40624;BMP280;26325;48.594;11.650;2023-02-01T07:01:55;96945.31;;;5.09
40624;BMP280;26325;48.594;11.650;2023-02-01T07:04:25;96962.25;;;5.03
40624;BMP280;26325;48.594;11.650;2023-02-01T07:10:55;96945.88;;;5.17
40624;BMP280;26325;48.594;11.650;2023-02-01T07:14:16;96946.69;;;5.24
40624;BMP280;26325;48.594;11.650;2023-02-01T07:17:05;96929.53;;;5.18
40624;BMP280;26325;48.594;11.650;2023-02-01T07:19:33;96936.84;;;5.21
40624;BMP280;26325;48.594;11.650;2023-02-01T07:21:58;96933.88;;;5.17
40624;BMP280;26325;48.594;11.650;2023-02-01T07:24:24;96943.94;;;5.32
40624;BMP280;26325;48.594;11.650;2023-02-01T07:26:51;96925.81;;;5.20
40624;BMP280;26325;48.594;11.650;2023-02-01T07:29:27;96941.16;;;5.27
40624;BMP280;26325;48.594;11.650;2023-02-01T07:39:18;96932.09;;;5.37
40624;BMP280;26325;48.594;11.650;2023-02-01T07:42:18;96938.75;;;5.44
40624;BMP280;26325;48.594;11.650;2023-02-01T07:44:43;96926.38;;;5.35
40624;BMP280;26325;48.594;11.650;2023-02-01T07:47:09;96926.16;;;5.36
40624;BMP280;26325;48.594;11.650;2023-02-01T07:49:34;96932.88;;;5.37
40624;BMP280;26325;48.594;11.650;2023-02-01T07:52:00;96938.59;;;5.39
40624;BMP280;26325;48.594;11.650;2023-02-01T07:54:30;96936.41;;;5.36
40624;BMP280;26325;48.594;11.650;2023-02-01T07:57:03;96934.25;;;5.40
40624;BMP280;26325;48.594;11.650;2023-02-01T07:59:49;96959.28;;;5.25
40624;BMP280;26325;48.594;11.650;2023-02-01T08:07:12;96944.50;;;5.33
40624;BMP280;26325;48.594;11.650;2023-02-01T08:09:38;96956.53;;;5.33
40624;BMP280;26325;48.594;11.650;2023-02-01T08:12:03;96952.19;;;5.27
40624;BMP280;26325;48.594;11.650;2023-02-01T08:14:29;96953.75;;;5.34
40624;BMP280;26325;48.594;11.650;2023-02-01T08:16:55;96954.13;;;5.57
40624;BMP280;26325;48.594;11.650;2023-02-01T08:19:24;96936.41;;;5.49
40624;BMP280;26325;48.594;11.650;2023-02-01T08:22:00;96946.22;;;5.52
40624;BMP280;26325;48.594;11.650;2023-02-01T08:24:59;96943.94;;;5.32
40624;BMP280;26325;48.594;11.650;2023-02-01T08:27:29;96957.28;;;5.46
40624;BMP280;26325;48.594;11.650;2023-02-01T08:29:57;96941.34;;;5.38
40624;BMP280;26325;48.594;11.650;2023-02-01T08:36:05;96941.94;;;5.33
40624;BMP280;26325;48.594;11.650;2023-02-01T08:38:31;96949.22;;;5.36
40624;BMP280;26325;48.594;11.650;2023-02-01T08:40:56;96956.91;;;5.36
40624;BMP280;26325;48.594;11.650;2023-02-01T08:43:22;96943.88;;;5.57
40624;BMP280;26325;48.594;11.650;2023-02-01T08:53:10;96955.88;;;5.63
40624;BMP280;26325;48.594;11.650;2023-02-01T08:55:41;96957.44;;;5.76
40624;BMP280;26325;48.594;11.650;2023-02-01T08:58:06;96964.97;;;5.71
40624;BMP280;26325;48.594;11.650;2023-02-01T09:00:32;96958.88;;;5.66
40624;BMP280;26325;48.594;11.650;2023-02-01T09:02:57;96952.34;;;5.57
40624;BMP280;26325;48.594;11.650;2023-02-01T09:05:24;96961.63;;;5.58
40624;BMP280;26325;48.594;11.650;2023-02-01T09:07:52;96967.94;;;5.50
40624;BMP280;26325;48.594;11.650;2023-02-01T09:13:59;96965.94;;;5.51
40624;BMP280;26325;48.594;11.650;2023-02-01T09:20:05;96973.84;;;5.56
40624;BMP280;26325;48.594;11.650;2023-02-01T09:22:31;96971.47;;;5.55
40624;BMP280;26325;48.594;11.650;2023-02-01T09:32:05;96995.72;;;5.59
40624;BMP280;26325;48.594;11.650;2023-02-01T09:34:40;96974.06;;;5.68
40624;BMP280;26325;48.594;11.650;2023-02-01T09:37:15;96973.81;;;5.69
40624;BMP280;26325;48.594;11.650;2023-02-01T09:39:46;96989.63;;;5.66
40624;BMP280;26325;48.594;11.650;2023-02-01T09:49:39;97017.19;;;5.58
40624;BMP280;26325;48.594;11.650;2023-02-01T09:52:11;97007.72;;;5.65
40624;BMP280;26325;48.594;11.650;2023-02-01T09:54:48;97015.63;;;5.57
40624;BMP280;26325;48.594;11.650;2023-02-01T10:01:26;97005.97;;;5.33
40624;BMP280;26325;48.594;11.650;2023-02-01T10:04:11;97012.28;;;5.31
40624;BMP280;26325;48.594;11.650;2023-02-01T10:07:02;97009.72;;;5.44
40624;BMP280;26325;48.594;11.650;2023-02-01T10:22:45;97024.88;;;5.45
40624;BMP280;26325;48.594;11.650;2023-02-01T10:25:41;97020.94;;;5.49
40624;BMP280;26325;48.594;11.650;2023-02-01T10:29:13;97026.06;;;5.43
40624;BMP280;26325;48.594;11.650;2023-02-01T10:31:46;97021.16;;;5.41
40624;BMP280;26325;48.594;11.650;2023-02-01T10:34:37;97029.63;;;5.29
40624;BMP280;26325;48.594;11.650;2023-02-01T10:37:33;97036.50;;;5.29
40624;BMP280;26325;48.594;11.650;2023-02-01T10:40:21;97046.94;;;5.27
40624;BMP280;26325;48.594;11.650;2023-02-01T10:42:54;97043.22;;;5.23
40624;BMP280;26325;48.594;11.650;2023-02-01T10:45:25;97051.47;;;5.25
40624;BMP280;26325;48.594;11.650;2023-02-01T10:47:53;97049.72;;;5.32
40624;BMP280;26325;48.594;11.650;2023-02-01T10:51:02;97056.59;;;5.44
40624;BMP280;26325;48.594;11.650;2023-02-01T10:56:10;97050.28;;;5.34
40624;BMP280;26325;48.594;11.650;2023-02-01T10:58:44;97042.84;;;5.32
40624;BMP280;26325;48.594;11.650;2023-02-01T11:01:41;97049.91;;;5.31
40624;BMP280;26325;48.594;11.650;2023-02-01T11:04:33;97045.56;;;5.37
40624;BMP280;26325;48.594;11.650;2023-02-01T11:07:17;97032.97;;;5.30
40624;BMP280;26325;48.594;11.650;2023-02-01T11:09:54;97026.88;;;5.31
40624;BMP280;26325;48.594;11.650;2023-02-01T11:15:22;97026.47;;;5.46
40624;BMP280;26325;48.594;11.650;2023-02-01T11:17:50;97018.78;;;5.65
40624;BMP280;26325;48.594;11.650;2023-02-01T11:20:19;97002.81;;;5.76
40624;BMP280;26325;48.594;11.650;2023-02-01T11:22:55;97004.97;;;5.79
40624;BMP280;26325;48.594;11.650;2023-02-01T11:25:23;96997.03;;;5.99
40624;BMP280;26325;48.594;11.650;2023-02-01T11:27:54;97010.00;;;6.10
40624;BMP280;26325;48.594;11.650;2023-02-01T11:30:38;96999.28;;;6.26
40624;BMP280;26325;48.594;11.650;2023-02-01T11:33:07;96997.28;;;6.28
40624;BMP280;26325;48.594;11.650;2023-02-01T11:35:38;97006.50;;;6.48
40624;BMP280;26325;48.594;11.650;2023-02-01T11:38:28;96997.44;;;6.39
40624;BMP280;26325;48.594;11.650;2023-02-01T11:40:54;96999.94;;;6.15
40624;BMP280;26325;48.594;11.650;2023-02-01T11:43:28;96996.16;;;6.24
40624;BMP280;26325;48.594;11.650;2023-02-01T11:46:02;97003.75;;;6.43
40624;BMP280;26325;48.594;11.650;2023-02-01T11:48:31;97011.41;;;6.49
40624;BMP280;26325;48.594;11.650;2023-02-01T11:57:37;97015.22;;;5.79
40624;BMP280;26325;48.594;11.650;2023-02-01T12:00:35;97012.97;;;6.08
40624;BMP280;26325;48.594;11.650;2023-02-01T12:04:07;97004.47;;;6.13
40624;BMP280;26325;48.594;11.650;2023-02-01T12:15:52;96982.22;;;5.95
40624;BMP280;26325;48.594;11.650;2023-02-01T12:18:57;96984.88;;;5.76
40624;BMP280;26325;48.594;11.650;2023-02-01T12:47:01;96956.91;;;6.17
40624;BMP280;26325;48.594;11.650;2023-02-01T12:52:42;96950.00;;;6.11
40624;BMP280;26325;48.594;11.650;2023-02-01T12:58:53;96959.69;;;6.16
40624;BMP280;26325;48.594;11.650;2023-02-01T13:05:22;96955.50;;;6.21
40624;BMP280;26325;48.594;11.650;2023-02-01T13:10:45;96948.47;;;6.10
40624;BMP280;26325;48.594;11.650;2023-02-01T13:13:30;96951.19;;;6.15
40624;BMP280;26325;48.594;11.650;2023-02-01T13:29:13;96939.44;;;6.02
40624;BMP280;26325;48.594;11.650;2023-02-01T13:45:51;96936.53;;;5.79
40624;BMP280;26325;48.594;11.650;2023-02-01T13:51:04;96941.66;;;5.79
40624;BMP280;26325;48.594;11.650;2023-02-01T13:53:35;96952.53;;;5.75
40624;BMP280;26325;48.594;11.650;2023-02-01T13:56:22;96951.00;;;5.68
40624;BMP280;26325;48.594;11.650;2023-02-01T13:58:49;96931.25;;;5.74
40624;BMP280;26325;48.594;11.650;2023-02-01T14:04:06;96944.44;;;5.71
40624;BMP280;26325;48.594;11.650;2023-02-01T14:13:54;96942.44;;;5.86
40624;BMP280;26325;48.594;11.650;2023-02-01T14:16:43;96949.31;;;5.86
40624;BMP280;26325;48.594;11.650;2023-02-01T14:19:26;96951.53;;;5.70
40624;BMP280;26325;48.594;11.650;2023-02-01T14:24:55;96956.09;;;5.55
40624;BMP280;26325;48.594;11.650;2023-02-01T14:42:47;96958.06;;;5.66
40624;BMP280;26325;48.594;11.650;2023-02-01T14:51:35;96963.56;;;5.69
40624;BMP280;26325;48.594;11.650;2023-02-01T14:54:02;96966.72;;;5.71
40624;BMP280;26325;48.594;11.650;2023-02-01T14:56:27;96957.88;;;5.67
40624;BMP280;26325;48.594;11.650;2023-02-01T14:59:13;96957.63;;;5.81
40624;BMP280;26325;48.594;11.650;2023-02-01T15:01:50;96970.66;;;5.80
40624;BMP280;26325;48.594;11.650;2023-02-01T15:04:18;96967.72;;;5.64
40624;BMP280;26325;48.594;11.650;2023-02-01T15:06:51;96967.53;;;5.59
40624;BMP280;26325;48.594;11.650;2023-02-01T15:14:29;96967.34;;;5.67
40624;BMP280;26325;48.594;11.650;2023-02-01T15:16:54;96962.53;;;5.89
40624;BMP280;26325;48.594;11.650;2023-02-01T15:19:25;96976.19;;;5.70
40624;BMP280;26325;48.594;11.650;2023-02-01T15:21:56;96967.31;;;5.73
40624;BMP280;26325;48.594;11.650;2023-02-01T15:24:28;96974.00;;;5.61
40624;BMP280;26325;48.594;11.650;2023-02-01T15:26:58;96976.38;;;5.63
40624;BMP280;26325;48.594;11.650;2023-02-01T15:29:27;96981.31;;;5.83
40624;BMP280;26325;48.594;11.650;2023-02-01T15:31:57;96978.94;;;5.63
40624;BMP280;26325;48.594;11.650;2023-02-01T15:34:23;96969.91;;;5.67
40624;BMP280;26325;48.594;11.650;2023-02-01T15:36:49;96969.13;;;5.66
40624;BMP280;26325;48.594;11.650;2023-02-01T15:42:13;96975.00;;;5.60
40624;BMP280;26325;48.594;11.650;2023-02-01T15:44:46;96977.97;;;5.51
40624;BMP280;26325;48.594;11.650;2023-02-01T15:47:23;96976.81;;;5.66
40624;BMP280;26325;48.594;11.650;2023-02-01T15:49:55;96979.91;;;5.62
40624;BMP280;26325;48.594;11.650;2023-02-01T15:52:39;96974.84;;;5.49
40624;BMP280;26325;48.594;11.650;2023-02-01T15:55:36;96962.41;;;5.59
40624;BMP280;26325;48.594;11.650;2023-02-01T15:58:24;96976.41;;;5.50
40624;BMP280;26325;48.594;11.650;2023-02-01T16:00:58;96974.81;;;5.43
40624;BMP280;26325;48.594;11.650;2023-02-01T16:03:37;96969.91;;;5.41
40624;BMP280;26325;48.594;11.650;2023-02-01T16:09:10;96960.84;;;5.45
40624;BMP280;26325;48.594;11.650;2023-02-01T16:14:20;96959.63;;;5.54
40624;BMP280;26325;48.594;11.650;2023-02-01T16:16:45;96958.88;;;5.34
40624;BMP280;26325;48.594;11.650;2023-02-01T16:19:11;96957.28;;;5.46
40624;BMP280;26325;48.594;11.650;2023-02-01T16:21:36;96956.91;;;5.49
40624;BMP280;26325;48.594;11.650;2023-02-01T16:24:02;96954.56;;;5.41
40624;BMP280;26325;48.594;11.650;2023-02-01T16:26:31;96951.19;;;5.34
40624;BMP280;26325;48.594;11.650;2023-02-01T16:28:58;96955.72;;;5.45
40624;BMP280;26325;48.594;11.650;2023-02-01T16:31:30;96961.44;;;5.34
40624;BMP280;26325;48.594;11.650;2023-02-01T16:33:56;96952.75;;;5.48
40624;BMP280;26325;48.594;11.650;2023-02-01T16:36:22;96947.25;;;5.45
40624;BMP280;26325;48.594;11.650;2023-02-01T16:38:49;96946.06;;;5.47
40624;BMP280;26325;48.594;11.650;2023-02-01T16:41:20;96955.69;;;5.58
40624;BMP280;26325;48.594;11.650;2023-02-01T16:43:53;96960.66;;;5.34
40624;BMP280;26325;48.594;11.650;2023-02-01T16:46:23;96952.16;;;5.52
40624;BMP280;26325;48.594;11.650;2023-02-01T16:48:57;96956.91;;;5.36
40624;BMP280;26325;48.594;11.650;2023-02-01T16:51:25;96958.47;;;5.25
40624;BMP280;26325;48.594;11.650;2023-02-01T16:53:53;96954.94;;;5.38
40624;BMP280;26325;48.594;11.650;2023-02-01T16:56:27;96963.00;;;5.35
40624;BMP280;26325;48.594;11.650;2023-02-01T16:58:53;96957.28;;;5.33
40624;BMP280;26325;48.594;11.650;2023-02-01T17:01:20;96962.03;;;5.36
40624;BMP280;26325;48.594;11.650;2023-02-01T17:03:46;96951.19;;;5.34
40624;BMP280;26325;48.594;11.650;2023-02-01T17:06:20;96950.19;;;5.48
40624;BMP280;26325;48.594;11.650;2023-02-01T17:08:55;96952.97;;;5.40
40624;BMP280;26325;48.594;11.650;2023-02-01T17:11:23;96952.97;;;5.40
40624;BMP280;26325;48.594;11.650;2023-02-01T17:13:49;96954.16;;;5.38
40624;BMP280;26325;48.594;11.650;2023-02-01T17:18:42;96951.81;;;5.30
40624;BMP280;26325;48.594;11.650;2023-02-01T17:21:09;96952.56;;;5.50
40624;BMP280;26325;48.594;11.650;2023-02-01T17:23:35;96946.44;;;5.57
40624;BMP280;26325;48.594;11.650;2023-02-01T17:26:02;96951.38;;;5.46
40624;BMP280;26325;48.594;11.650;2023-02-01T17:28:30;96947.03;;;5.59
40624;BMP280;26325;48.594;11.650;2023-02-01T17:30:56;96961.44;;;5.47
40624;BMP280;26325;48.594;11.650;2023-02-01T17:33:26;96963.59;;;5.44
40624;BMP280;26325;48.594;11.650;2023-02-01T17:35:54;96949.59;;;5.46
40624;BMP280;26325;48.594;11.650;2023-02-01T17:38:21;96954.16;;;5.38
40624;BMP280;26325;48.594;11.650;2023-02-01T17:40:46;96939.91;;;5.61
40624;BMP280;26325;48.594;11.650;2023-02-01T17:43:21;96932.84;;;5.56
40624;BMP280;26325;48.594;11.650;2023-02-01T17:45:53;96947.06;;;5.40
40624;BMP280;26325;48.594;11.650;2023-02-01T17:48:21;96944.63;;;5.64
40624;BMP280;26325;48.594;11.650;2023-02-01T17:50:50;96933.63;;;5.50
40624;BMP280;26325;48.594;11.650;2023-02-01T17:53:20;96940.34;;;5.58
40624;BMP280;26325;48.594;11.650;2023-02-01T17:55:49;96932.63;;;5.51
40624;BMP280;26325;48.594;11.650;2023-02-01T17:58:16;96920.97;;;5.62
40624;BMP280;26325;48.594;11.650;2023-02-01T18:00:42;96923.56;;;5.62
40624;BMP280;26325;48.594;11.650;2023-02-01T18:03:21;96922.16;;;5.59
40624;BMP280;26325;48.594;11.650;2023-02-01T18:05:48;96922.38;;;5.58
40624;BMP280;26325;48.594;11.650;2023-02-01T18:08:17;96923.00;;;5.47
40624;BMP280;26325;48.594;11.650;2023-02-01T18:10:43;96931.09;;;5.44
40624;BMP280;26325;48.594;11.650;2023-02-01T18:13:10;96922.38;;;5.51
40624;BMP280;26325;48.594;11.650;2023-02-01T18:15:37;96930.47;;;5.55
40624;BMP280;26325;48.594;11.650;2023-02-01T18:18:05;96937.22;;;5.31
40624;BMP280;26325;48.594;11.650;2023-02-01T18:20:30;96944.69;;;5.38
40624;BMP280;26325;48.594;11.650;2023-02-01T18:22:56;96940.34;;;5.45
40624;BMP280;26325;48.594;11.650;2023-02-01T18:25:24;96941.16;;;5.39
40624;BMP280;26325;48.594;11.650;2023-02-01T18:27:53;96948.44;;;5.49
40624;BMP280;26325;48.594;11.650;2023-02-01T18:30:32;96956.91;;;5.49
40624;BMP280;26325;48.594;11.650;2023-02-01T18:32:58;96962.81;;;5.43
40624;BMP280;26325;48.594;11.650;2023-02-01T18:35:27;96962.81;;;5.50
40624;BMP280;26325;48.594;11.650;2023-02-01T18:37:54;96954.91;;;5.64
40624;BMP280;26325;48.594;11.650;2023-02-01T18:40:27;96950.59;;;5.45
40624;BMP280;26325;48.594;11.650;2023-02-01T18:42:54;96947.06;;;5.33
40624;BMP280;26325;48.594;11.650;2023-02-01T18:45:37;96941.31;;;5.50
40624;BMP280;26325;48.594;11.650;2023-02-01T18:48:05;96947.03;;;5.52
40624;BMP280;26325;48.594;11.650;2023-02-01T18:50:40;96947.44;;;5.50
40624;BMP280;26325;48.594;11.650;2023-02-01T18:53:11;96947.22;;;5.51
40624;BMP280;26325;48.594;11.650;2023-02-01T18:55:38;96949.38;;;5.60
40624;BMP280;26325;48.594;11.650;2023-02-01T18:58:07;96938.75;;;5.50
40624;BMP280;26325;48.594;11.650;2023-02-01T19:00:34;96949.00;;;5.50
40624;BMP280;26325;48.594;11.650;2023-02-01T19:03:00;96948.00;;;5.64
40624;BMP280;26325;48.594;11.650;2023-02-01T19:05:29;96953.53;;;5.68
40624;BMP280;26325;48.594;11.650;2023-02-01T19:07:55;96958.25;;;5.51
40624;BMP280;26325;48.594;11.650;2023-02-01T19:10:22;96966.72;;;5.52
40624;BMP280;26325;48.594;11.650;2023-02-01T19:12:52;96954.13;;;5.44
40624;BMP280;26325;48.594;11.650;2023-02-01T19:15:20;96961.97;;;5.62